sensor_id;sensor_type;location;lat;lon;timestamp;P1;durP1;ratioP1;P2;durP2;ratioP2
49123;SDS011;48506;48.202;16.274;2023-02-14T00:01:46;9.40;;;5.70;;
49123;SDS011;48506;48.202;16.274;2023-02-14T00:04:13;10.57;;;5.85;;
49123;SDS011;48506;48.202;16.274;2023-02-14T00:06:40;8.80;;;5.82;;
49123;SDS011;48506;48.202;16.274;2023-02-14T00:09:07;12.65;;;5.05;;
49123;SDS011;48506;48.202;16.274;2023-02-14T00:11:37;11.95;;;6.22;;
49123;SDS011;48506;48.202;16.274;2023-02-14T00:14:04;11.43;;;6.18;;
49123;SDS011;48506;48.202;16.274;2023-02-14T00:16:49;12.48;;;6.90;;
49123;SDS011;48506;48.202;16.274;2023-02-14T00:19:16;12.05;;;5.78;;
49123;SDS011;48506;48.202;16.274;2023-02-14T00:21:43;10.50;;;6.22;;
49123;SDS011;48506;48.202;16.274;2023-02-14T00:24:11;11.63;;;6.20;;
49123;SDS011;48506;48.202;16.274;2023-02-14T00:26:57;12.07;;;6.80;;
49123;SDS011;48506;48.202;16.274;2023-02-14T00:29:27;11.20;;;5.65;;
49123;SDS011;48506;48.202;16.274;2023-02-14T00:31:54;12.60;;;6.22;;
49123;SDS011;48506;48.202;16.274;2023-02-14T00:34:20;11.98;;;5.65;;
49123;SDS011;48506;48.202;16.274;2023-02-14T00:36:46;12.43;;;6.10;;
49123;SDS011;48506;48.202;16.274;2023-02-14T00:39:13;13.45;;;7.18;;
49123;SDS011;48506;48.202;16.274;2023-02-14T00:41:39;11.07;;;6.25;;
49123;SDS011;48506;48.202;16.274;2023-02-14T00:44:06;10.60;;;6.63;;
49123;SDS011;48506;48.202;16.274;2023-02-14T00:46:32;15.65;;;6.60;;
49123;SDS011;48506;48.202;16.274;2023-02-14T00:48:59;14.20;;;7.38;;
49123;SDS011;48506;48.202;16.274;2023-02-14T00:51:25;10.75;;;6.95;;
49123;SDS011;48506;48.202;16.274;2023-02-14T00:53:52;12.27;;;7.38;;
49123;SDS011;48506;48.202;16.274;2023-02-14T00:56:18;16.10;;;9.93;;
49123;SDS011;48506;48.202;16.274;2023-02-14T00:58:45;14.68;;;8.90;;
49123;SDS011;48506;48.202;16.274;2023-02-14T01:01:12;15.20;;;8.65;;
49123;SDS011;48506;48.202;16.274;2023-02-14T01:03:38;15.13;;;8.18;;
49123;SDS011;48506;48.202;16.274;2023-02-14T01:06:05;19.42;;;9.85;;
49123;SDS011;48506;48.202;16.274;2023-02-14T01:08:31;14.73;;;8.57;;
49123;SDS011;48506;48.202;16.274;2023-02-14T01:11:05;15.50;;;9.27;;
49123;SDS011;48506;48.202;16.274;2023-02-14T01:13:35;17.77;;;9.43;;
49123;SDS011;48506;48.202;16.274;2023-02-14T01:16:04;15.05;;;8.23;;
49123;SDS011;48506;48.202;16.274;2023-02-14T01:18:32;19.17;;;9.15;;
49123;SDS011;48506;48.202;16.274;2023-02-14T01:21:08;17.60;;;9.80;;
49123;SDS011;48506;48.202;16.274;2023-02-14T01:23:35;18.10;;;10.55;;
49123;SDS011;48506;48.202;16.274;2023-02-14T01:26:04;17.33;;;9.35;;
49123;SDS011;48506;48.202;16.274;2023-02-14T01:28:31;17.10;;;10.48;;
49123;SDS011;48506;48.202;16.274;2023-02-14T01:31:04;19.83;;;10.40;;
49123;SDS011;48506;48.202;16.274;2023-02-14T01:33:32;17.38;;;10.50;;
49123;SDS011;48506;48.202;16.274;2023-02-14T01:35:58;16.30;;;10.35;;
49123;SDS011;48506;48.202;16.274;2023-02-14T01:38:25;17.05;;;10.15;;
49123;SDS011;48506;48.202;16.274;2023-02-14T01:40:51;18.33;;;10.30;;
49123;SDS011;48506;48.202;16.274;2023-02-14T01:43:16;17.50;;;10.57;;
49123;SDS011;48506;48.202;16.274;2023-02-14T01:45:42;16.70;;;10.45;;
49123;SDS011;48506;48.202;16.274;2023-02-14T01:48:08;17.95;;;10.48;;
49123;SDS011;48506;48.202;16.274;2023-02-14T01:50:39;16.02;;;9.85;;
49123;SDS011;48506;48.202;16.274;2023-02-14T01:53:16;18.05;;;11.05;;
49123;SDS011;48506;48.202;16.274;2023-02-14T01:55:50;19.35;;;10.68;;
49123;SDS011;48506;48.202;16.274;2023-02-14T01:58:24;18.52;;;10.38;;
49123;SDS011;48506;48.202;16.274;2023-02-14T02:00:53;19.48;;;10.73;;
49123;SDS011;48506;48.202;16.274;2023-02-14T02:03:32;17.75;;;10.27;;
49123;SDS011;48506;48.202;16.274;2023-02-14T02:06:11;19.13;;;10.75;;
49123;SDS011;48506;48.202;16.274;2023-02-14T02:08:49;19.40;;;10.60;;
49123;SDS011;48506;48.202;16.274;2023-02-14T02:11:23;17.55;;;10.10;;
49123;SDS011;48506;48.202;16.274;2023-02-14T02:13:50;18.13;;;11.18;;
49123;SDS011;48506;48.202;16.274;2023-02-14T02:22:19;19.77;;;10.23;;
49123;SDS011;48506;48.202;16.274;2023-02-14T02:34:39;16.92;;;10.88;;
49123;SDS011;48506;48.202;16.274;2023-02-14T02:39:53;24.00;;;11.93;;
49123;SDS011;48506;48.202;16.274;2023-02-14T02:47:59;19.45;;;11.70;;
49123;SDS011;48506;48.202;16.274;2023-02-14T02:50:39;23.38;;;12.32;;
49123;SDS011;48506;48.202;16.274;2023-02-14T02:56:00;19.95;;;11.70;;
49123;SDS011;48506;48.202;16.274;2023-02-14T02:58:57;21.88;;;12.15;;
49123;SDS011;48506;48.202;16.274;2023-02-14T03:01:34;23.35;;;11.77;;
49123;SDS011;48506;48.202;16.274;2023-02-14T03:04:06;22.10;;;11.73;;
49123;SDS011;48506;48.202;16.274;2023-02-14T03:19:56;20.17;;;10.88;;
49123;SDS011;48506;48.202;16.274;2023-02-14T03:22:56;21.48;;;11.50;;
49123;SDS011;48506;48.202;16.274;2023-02-14T03:28:45;21.33;;;11.27;;
49123;SDS011;48506;48.202;16.274;2023-02-14T03:34:16;25.83;;;12.30;;
49123;SDS011;48506;48.202;16.274;2023-02-14T03:42:34;23.92;;;11.48;;
49123;SDS011;48506;48.202;16.274;2023-02-14T03:45:09;24.85;;;12.70;;
49123;SDS011;48506;48.202;16.274;2023-02-14T03:47:39;22.67;;;12.75;;
49123;SDS011;48506;48.202;16.274;2023-02-14T03:50:14;30.50;;;15.27;;
49123;SDS011;48506;48.202;16.274;2023-02-14T03:52:43;27.60;;;13.43;;
49123;SDS011;48506;48.202;16.274;2023-02-14T03:57:45;28.55;;;13.20;;
49123;SDS011;48506;48.202;16.274;2023-02-14T04:00:35;31.60;;;14.13;;
49123;SDS011;48506;48.202;16.274;2023-02-14T04:03:06;31.08;;;15.77;;
49123;SDS011;48506;48.202;16.274;2023-02-14T04:05:36;35.28;;;15.05;;
49123;SDS011;48506;48.202;16.274;2023-02-14T04:08:08;31.25;;;15.70;;
49123;SDS011;48506;48.202;16.274;2023-02-14T04:10:34;35.25;;;17.17;;
49123;SDS011;48506;48.202;16.274;2023-02-14T04:13:01;32.25;;;14.98;;
49123;SDS011;48506;48.202;16.274;2023-02-14T04:15:27;39.72;;;18.08;;
49123;SDS011;48506;48.202;16.274;2023-02-14T04:17:53;32.08;;;16.38;;
49123;SDS011;48506;48.202;16.274;2023-02-14T04:20:37;31.73;;;17.35;;
49123;SDS011;48506;48.202;16.274;2023-02-14T04:23:03;31.63;;;16.38;;
49123;SDS011;48506;48.202;16.274;2023-02-14T04:25:29;30.17;;;16.08;;
49123;SDS011;48506;48.202;16.274;2023-02-14T04:27:55;32.50;;;15.73;;
49123;SDS011;48506;48.202;16.274;2023-02-14T04:30:21;32.55;;;16.05;;
49123;SDS011;48506;48.202;16.274;2023-02-14T04:32:47;37.20;;;16.13;;
49123;SDS011;48506;48.202;16.274;2023-02-14T04:35:14;34.67;;;15.85;;
49123;SDS011;48506;48.202;16.274;2023-02-14T04:37:40;35.90;;;16.70;;
49123;SDS011;48506;48.202;16.274;2023-02-14T04:40:07;29.13;;;15.70;;
49123;SDS011;48506;48.202;16.274;2023-02-14T04:42:33;36.50;;;16.80;;
49123;SDS011;48506;48.202;16.274;2023-02-14T04:44:59;33.90;;;15.65;;
49123;SDS011;48506;48.202;16.274;2023-02-14T04:47:25;31.35;;;15.95;;
49123;SDS011;48506;48.202;16.274;2023-02-14T04:49:51;29.48;;;13.98;;
49123;SDS011;48506;48.202;16.274;2023-02-14T04:52:16;30.70;;;15.32;;
49123;SDS011;48506;48.202;16.274;2023-02-14T04:54:42;31.83;;;15.75;;
49123;SDS011;48506;48.202;16.274;2023-02-14T04:57:08;30.55;;;15.80;;
49123;SDS011;48506;48.202;16.274;2023-02-14T04:59:34;33.70;;;15.98;;
49123;SDS011;48506;48.202;16.274;2023-02-14T05:02:01;32.22;;;17.08;;
49123;SDS011;48506;48.202;16.274;2023-02-14T05:04:27;29.35;;;15.13;;
49123;SDS011;48506;48.202;16.274;2023-02-14T05:06:52;34.35;;;16.42;;
49123;SDS011;48506;48.202;16.274;2023-02-14T05:09:18;29.05;;;14.50;;
49123;SDS011;48506;48.202;16.274;2023-02-14T05:11:44;27.50;;;16.05;;
49123;SDS011;48506;48.202;16.274;2023-02-14T05:14:10;28.05;;;14.05;;
49123;SDS011;48506;48.202;16.274;2023-02-14T05:16:37;25.85;;;13.40;;
49123;SDS011;48506;48.202;16.274;2023-02-14T05:19:03;30.17;;;15.00;;
49123;SDS011;48506;48.202;16.274;2023-02-14T05:21:29;30.27;;;14.10;;
49123;SDS011;48506;48.202;16.274;2023-02-14T05:23:58;29.25;;;14.52;;
49123;SDS011;48506;48.202;16.274;2023-02-14T05:26:24;27.85;;;13.85;;
49123;SDS011;48506;48.202;16.274;2023-02-14T05:28:50;31.27;;;14.93;;
49123;SDS011;48506;48.202;16.274;2023-02-14T05:31:16;28.05;;;14.15;;
49123;SDS011;48506;48.202;16.274;2023-02-14T05:33:42;23.65;;;12.70;;
49123;SDS011;48506;48.202;16.274;2023-02-14T05:36:08;24.48;;;11.88;;
49123;SDS011;48506;48.202;16.274;2023-02-14T05:38:34;27.85;;;14.18;;
49123;SDS011;48506;48.202;16.274;2023-02-14T05:41:01;29.48;;;14.23;;
49123;SDS011;48506;48.202;16.274;2023-02-14T05:43:27;27.90;;;14.35;;
49123;SDS011;48506;48.202;16.274;2023-02-14T05:45:54;28.77;;;14.10;;
49123;SDS011;48506;48.202;16.274;2023-02-14T05:48:21;24.75;;;13.57;;
49123;SDS011;48506;48.202;16.274;2023-02-14T05:50:47;30.30;;;14.80;;
49123;SDS011;48506;48.202;16.274;2023-02-14T05:53:13;26.30;;;13.75;;
49123;SDS011;48506;48.202;16.274;2023-02-14T05:55:40;26.67;;;13.48;;
49123;SDS011;48506;48.202;16.274;2023-02-14T05:58:06;23.30;;;11.32;;
49123;SDS011;48506;48.202;16.274;2023-02-14T06:00:32;27.98;;;13.68;;
49123;SDS011;48506;48.202;16.274;2023-02-14T06:02:59;26.33;;;14.00;;
49123;SDS011;48506;48.202;16.274;2023-02-14T06:05:25;27.55;;;14.50;;
49123;SDS011;48506;48.202;16.274;2023-02-14T06:07:51;25.73;;;12.68;;
49123;SDS011;48506;48.202;16.274;2023-02-14T06:10:21;23.80;;;12.65;;
49123;SDS011;48506;48.202;16.274;2023-02-14T06:12:49;24.65;;;13.43;;
49123;SDS011;48506;48.202;16.274;2023-02-14T06:15:18;25.80;;;12.65;;
49123;SDS011;48506;48.202;16.274;2023-02-14T06:17:51;25.73;;;13.02;;
49123;SDS011;48506;48.202;16.274;2023-02-14T06:20:20;23.25;;;12.57;;
49123;SDS011;48506;48.202;16.274;2023-02-14T06:22:46;23.50;;;12.45;;
49123;SDS011;48506;48.202;16.274;2023-02-14T06:25:12;21.60;;;12.50;;
49123;SDS011;48506;48.202;16.274;2023-02-14T06:27:38;25.63;;;12.13;;
49123;SDS011;48506;48.202;16.274;2023-02-14T06:30:05;19.00;;;10.93;;
49123;SDS011;48506;48.202;16.274;2023-02-14T06:32:32;23.42;;;11.57;;
49123;SDS011;48506;48.202;16.274;2023-02-14T06:34:58;21.10;;;11.45;;
49123;SDS011;48506;48.202;16.274;2023-02-14T06:37:24;19.35;;;10.32;;
49123;SDS011;48506;48.202;16.274;2023-02-14T06:39:51;25.00;;;12.68;;
49123;SDS011;48506;48.202;16.274;2023-02-14T06:42:17;22.98;;;12.23;;
49123;SDS011;48506;48.202;16.274;2023-02-14T06:44:44;23.85;;;12.25;;
49123;SDS011;48506;48.202;16.274;2023-02-14T06:47:10;25.83;;;13.63;;
49123;SDS011;48506;48.202;16.274;2023-02-14T06:49:36;23.05;;;12.38;;
49123;SDS011;48506;48.202;16.274;2023-02-14T06:52:04;24.52;;;13.05;;
49123;SDS011;48506;48.202;16.274;2023-02-14T06:54:30;28.63;;;13.35;;
49123;SDS011;48506;48.202;16.274;2023-02-14T06:56:56;24.75;;;12.88;;
49123;SDS011;48506;48.202;16.274;2023-02-14T06:59:23;23.95;;;14.02;;
49123;SDS011;48506;48.202;16.274;2023-02-14T07:01:49;23.92;;;12.32;;
49123;SDS011;48506;48.202;16.274;2023-02-14T07:04:15;23.73;;;11.98;;
49123;SDS011;48506;48.202;16.274;2023-02-14T07:06:43;23.17;;;12.10;;
49123;SDS011;48506;48.202;16.274;2023-02-14T07:09:10;20.25;;;10.77;;
49123;SDS011;48506;48.202;16.274;2023-02-14T07:11:41;22.83;;;13.00;;
49123;SDS011;48506;48.202;16.274;2023-02-14T07:14:07;23.80;;;12.48;;
49123;SDS011;48506;48.202;16.274;2023-02-14T07:16:33;24.83;;;11.80;;
49123;SDS011;48506;48.202;16.274;2023-02-14T07:19:00;20.50;;;11.07;;
49123;SDS011;48506;48.202;16.274;2023-02-14T07:21:26;20.80;;;11.82;;
49123;SDS011;48506;48.202;16.274;2023-02-14T07:23:52;28.88;;;12.10;;
49123;SDS011;48506;48.202;16.274;2023-02-14T07:26:18;25.08;;;12.52;;
49123;SDS011;48506;48.202;16.274;2023-02-14T07:28:44;24.65;;;12.77;;
49123;SDS011;48506;48.202;16.274;2023-02-14T07:31:14;22.95;;;13.18;;
49123;SDS011;48506;48.202;16.274;2023-02-14T07:33:40;22.17;;;12.15;;
49123;SDS011;48506;48.202;16.274;2023-02-14T07:36:07;21.48;;;11.85;;
49123;SDS011;48506;48.202;16.274;2023-02-14T07:38:33;23.23;;;11.50;;
49123;SDS011;48506;48.202;16.274;2023-02-14T07:40:59;21.67;;;12.55;;
49123;SDS011;48506;48.202;16.274;2023-02-14T07:43:25;22.50;;;11.75;;
49123;SDS011;48506;48.202;16.274;2023-02-14T07:45:52;19.00;;;10.80;;
49123;SDS011;48506;48.202;16.274;2023-02-14T07:48:18;22.17;;;11.90;;
49123;SDS011;48506;48.202;16.274;2023-02-14T07:50:44;28.98;;;12.07;;
49123;SDS011;48506;48.202;16.274;2023-02-14T07:53:11;28.55;;;12.77;;
49123;SDS011;48506;48.202;16.274;2023-02-14T07:55:37;20.60;;;12.23;;
49123;SDS011;48506;48.202;16.274;2023-02-14T07:58:05;21.88;;;12.23;;
49123;SDS011;48506;48.202;16.274;2023-02-14T08:00:31;23.90;;;11.45;;
49123;SDS011;48506;48.202;16.274;2023-02-14T08:02:57;24.42;;;12.27;;
49123;SDS011;48506;48.202;16.274;2023-02-14T08:05:23;22.85;;;11.63;;
49123;SDS011;48506;48.202;16.274;2023-02-14T08:07:49;24.92;;;12.48;;
49123;SDS011;48506;48.202;16.274;2023-02-14T08:10:15;22.35;;;12.73;;
49123;SDS011;48506;48.202;16.274;2023-02-14T08:12:42;24.85;;;12.50;;
49123;SDS011;48506;48.202;16.274;2023-02-14T08:15:33;23.60;;;11.98;;
49123;SDS011;48506;48.202;16.274;2023-02-14T08:18:18;20.73;;;11.05;;
49123;SDS011;48506;48.202;16.274;2023-02-14T08:20:47;25.20;;;12.67;;
49123;SDS011;48506;48.202;16.274;2023-02-14T08:23:16;24.55;;;13.75;;
49123;SDS011;48506;48.202;16.274;2023-02-14T08:25:44;22.98;;;12.07;;
49123;SDS011;48506;48.202;16.274;2023-02-14T08:28:11;22.02;;;12.15;;
49123;SDS011;48506;48.202;16.274;2023-02-14T08:30:39;27.17;;;12.55;;
49123;SDS011;48506;48.202;16.274;2023-02-14T08:33:06;26.50;;;13.13;;
49123;SDS011;48506;48.202;16.274;2023-02-14T08:35:33;31.55;;;14.13;;
49123;SDS011;48506;48.202;16.274;2023-02-14T08:38:00;23.75;;;12.13;;
49123;SDS011;48506;48.202;16.274;2023-02-14T08:40:27;23.88;;;12.70;;
49123;SDS011;48506;48.202;16.274;2023-02-14T08:42:52;26.08;;;13.27;;
49123;SDS011;48506;48.202;16.274;2023-02-14T08:45:18;24.20;;;13.43;;
49123;SDS011;48506;48.202;16.274;2023-02-14T08:47:45;26.02;;;14.00;;
49123;SDS011;48506;48.202;16.274;2023-02-14T08:50:12;22.38;;;12.48;;
49123;SDS011;48506;48.202;16.274;2023-02-14T08:52:40;19.90;;;11.20;;
49123;SDS011;48506;48.202;16.274;2023-02-14T08:55:10;21.98;;;11.85;;
49123;SDS011;48506;48.202;16.274;2023-02-14T08:57:37;24.92;;;13.13;;
49123;SDS011;48506;48.202;16.274;2023-02-14T09:00:04;24.70;;;13.20;;
49123;SDS011;48506;48.202;16.274;2023-02-14T09:02:31;25.35;;;13.70;;
49123;SDS011;48506;48.202;16.274;2023-02-14T09:04:57;21.45;;;12.73;;
49123;SDS011;48506;48.202;16.274;2023-02-14T09:07:23;24.30;;;13.70;;
49123;SDS011;48506;48.202;16.274;2023-02-14T09:09:50;25.23;;;12.80;;
49123;SDS011;48506;48.202;16.274;2023-02-14T09:12:16;25.23;;;13.23;;
49123;SDS011;48506;48.202;16.274;2023-02-14T09:14:42;22.48;;;11.40;;
49123;SDS011;48506;48.202;16.274;2023-02-14T09:17:09;25.85;;;13.27;;
49123;SDS011;48506;48.202;16.274;2023-02-14T09:19:36;24.95;;;13.60;;
49123;SDS011;48506;48.202;16.274;2023-02-14T09:22:04;23.25;;;13.05;;
49123;SDS011;48506;48.202;16.274;2023-02-14T09:24:32;24.38;;;12.48;;
49123;SDS011;48506;48.202;16.274;2023-02-14T09:26:59;28.40;;;12.57;;
49123;SDS011;48506;48.202;16.274;2023-02-14T09:29:26;29.50;;;14.65;;
49123;SDS011;48506;48.202;16.274;2023-02-14T09:31:56;23.42;;;12.68;;
49123;SDS011;48506;48.202;16.274;2023-02-14T09:34:25;27.08;;;15.23;;
49123;SDS011;48506;48.202;16.274;2023-02-14T09:36:53;20.40;;;10.85;;
49123;SDS011;48506;48.202;16.274;2023-02-14T09:39:19;26.67;;;12.90;;
49123;SDS011;48506;48.202;16.274;2023-02-14T09:41:58;26.65;;;12.75;;
49123;SDS011;48506;48.202;16.274;2023-02-14T09:44:48;23.33;;;12.27;;
49123;SDS011;48506;48.202;16.274;2023-02-14T09:49:49;27.20;;;13.85;;
49123;SDS011;48506;48.202;16.274;2023-02-14T09:52:17;22.42;;;12.52;;
49123;SDS011;48506;48.202;16.274;2023-02-14T09:54:47;19.70;;;10.13;;
49123;SDS011;48506;48.202;16.274;2023-02-14T09:57:24;26.00;;;13.18;;
49123;SDS011;48506;48.202;16.274;2023-02-14T10:00:51;25.33;;;12.73;;
49123;SDS011;48506;48.202;16.274;2023-02-14T10:11:21;24.80;;;12.02;;
49123;SDS011;48506;48.202;16.274;2023-02-14T10:13:58;22.65;;;12.57;;
49123;SDS011;48506;48.202;16.274;2023-02-14T10:16:36;25.15;;;13.65;;
49123;SDS011;48506;48.202;16.274;2023-02-14T10:19:30;23.58;;;13.25;;
49123;SDS011;48506;48.202;16.274;2023-02-14T10:21:58;25.60;;;14.05;;
49123;SDS011;48506;48.202;16.274;2023-02-14T10:24:34;25.92;;;13.52;;
49123;SDS011;48506;48.202;16.274;2023-02-14T10:27:25;24.10;;;13.30;;
49123;SDS011;48506;48.202;16.274;2023-02-14T10:30:12;23.38;;;12.65;;
49123;SDS011;48506;48.202;16.274;2023-02-14T10:32:55;27.23;;;13.77;;
49123;SDS011;48506;48.202;16.274;2023-02-14T10:51:50;23.95;;;12.38;;
49123;SDS011;48506;48.202;16.274;2023-02-14T10:54:31;25.10;;;14.15;;
49123;SDS011;48506;48.202;16.274;2023-02-14T10:57:05;23.58;;;13.35;;
49123;SDS011;48506;48.202;16.274;2023-02-14T10:59:45;24.48;;;12.95;;
49123;SDS011;48506;48.202;16.274;2023-02-14T11:04:45;24.38;;;13.27;;
49123;SDS011;48506;48.202;16.274;2023-02-14T11:07:14;24.55;;;13.23;;
49123;SDS011;48506;48.202;16.274;2023-02-14T11:09:42;23.13;;;12.05;;
49123;SDS011;48506;48.202;16.274;2023-02-14T11:12:08;22.90;;;12.23;;
49123;SDS011;48506;48.202;16.274;2023-02-14T11:14:37;19.63;;;11.23;;
49123;SDS011;48506;48.202;16.274;2023-02-14T11:19:57;22.95;;;14.05;;
49123;SDS011;48506;48.202;16.274;2023-02-14T11:22:32;25.10;;;12.75;;
49123;SDS011;48506;48.202;16.274;2023-02-14T11:25:03;29.08;;;14.05;;
49123;SDS011;48506;48.202;16.274;2023-02-14T11:27:32;23.38;;;11.95;;
49123;SDS011;48506;48.202;16.274;2023-02-14T11:29:59;25.45;;;13.02;;
49123;SDS011;48506;48.202;16.274;2023-02-14T11:32:27;26.42;;;13.50;;
49123;SDS011;48506;48.202;16.274;2023-02-14T11:37:37;23.42;;;13.35;;
49123;SDS011;48506;48.202;16.274;2023-02-14T11:40:29;25.30;;;12.45;;
49123;SDS011;48506;48.202;16.274;2023-02-14T11:45:45;26.98;;;13.90;;
49123;SDS011;48506;48.202;16.274;2023-02-14T11:48:19;25.30;;;13.05;;
49123;SDS011;48506;48.202;16.274;2023-02-14T11:50:54;25.23;;;13.60;;
49123;SDS011;48506;48.202;16.274;2023-02-14T11:53:44;25.67;;;14.43;;
49123;SDS011;48506;48.202;16.274;2023-02-14T11:56:13;26.08;;;13.82;;
49123;SDS011;48506;48.202;16.274;2023-02-14T11:58:47;24.48;;;12.20;;
49123;SDS011;48506;48.202;16.274;2023-02-14T12:01:31;26.60;;;13.68;;
49123;SDS011;48506;48.202;16.274;2023-02-14T12:04:02;32.78;;;14.73;;
49123;SDS011;48506;48.202;16.274;2023-02-14T12:06:32;27.38;;;15.13;;
49123;SDS011;48506;48.202;16.274;2023-02-14T12:09:30;28.83;;;14.38;;
49123;SDS011;48506;48.202;16.274;2023-02-14T12:12:02;37.03;;;14.32;;
49123;SDS011;48506;48.202;16.274;2023-02-14T12:14:40;29.13;;;15.00;;
49123;SDS011;48506;48.202;16.274;2023-02-14T12:17:10;29.85;;;15.00;;
49123;SDS011;48506;48.202;16.274;2023-02-14T12:19:52;26.05;;;13.77;;
49123;SDS011;48506;48.202;16.274;2023-02-14T12:22:28;26.92;;;14.00;;
49123;SDS011;48506;48.202;16.274;2023-02-14T12:27:55;22.02;;;12.23;;
49123;SDS011;48506;48.202;16.274;2023-02-14T12:30:27;24.15;;;12.75;;
49123;SDS011;48506;48.202;16.274;2023-02-14T12:32:58;25.38;;;13.80;;
49123;SDS011;48506;48.202;16.274;2023-02-14T12:35:35;26.77;;;13.70;;
49123;SDS011;48506;48.202;16.274;2023-02-14T12:41:11;23.27;;;13.65;;
49123;SDS011;48506;48.202;16.274;2023-02-14T12:51:50;25.58;;;13.52;;
49123;SDS011;48506;48.202;16.274;2023-02-14T12:57:19;27.73;;;14.55;;
49123;SDS011;48506;48.202;16.274;2023-02-14T13:21:22;25.85;;;13.82;;
49123;SDS011;48506;48.202;16.274;2023-02-14T13:23:54;22.67;;;12.27;;
49123;SDS011;48506;48.202;16.274;2023-02-14T13:26:32;23.25;;;13.15;;
49123;SDS011;48506;48.202;16.274;2023-02-14T13:29:03;25.75;;;13.30;;
49123;SDS011;48506;48.202;16.274;2023-02-14T13:31:36;25.15;;;13.98;;
49123;SDS011;48506;48.202;16.274;2023-02-14T13:34:05;22.45;;;12.20;;
49123;SDS011;48506;48.202;16.274;2023-02-14T13:36:39;23.83;;;13.63;;
49123;SDS011;48506;48.202;16.274;2023-02-14T13:39:06;22.40;;;12.73;;
49123;SDS011;48506;48.202;16.274;2023-02-14T13:41:41;22.33;;;13.20;;
49123;SDS011;48506;48.202;16.274;2023-02-14T13:44:07;24.02;;;14.13;;
49123;SDS011;48506;48.202;16.274;2023-02-14T13:49:17;22.52;;;12.60;;
49123;SDS011;48506;48.202;16.274;2023-02-14T13:51:47;25.25;;;14.27;;
49123;SDS011;48506;48.202;16.274;2023-02-14T13:54:21;18.95;;;11.98;;
49123;SDS011;48506;48.202;16.274;2023-02-14T13:56:57;26.20;;;12.82;;
49123;SDS011;48506;48.202;16.274;2023-02-14T13:59:27;22.35;;;12.23;;
49123;SDS011;48506;48.202;16.274;2023-02-14T14:01:54;22.65;;;11.82;;
49123;SDS011;48506;48.202;16.274;2023-02-14T14:17:31;25.48;;;14.75;;
49123;SDS011;48506;48.202;16.274;2023-02-14T14:20:00;21.42;;;12.82;;
49123;SDS011;48506;48.202;16.274;2023-02-14T14:22:55;23.63;;;12.70;;
49123;SDS011;48506;48.202;16.274;2023-02-14T14:25:33;25.10;;;13.88;;
49123;SDS011;48506;48.202;16.274;2023-02-14T14:28:09;22.75;;;13.38;;
49123;SDS011;48506;48.202;16.274;2023-02-14T14:30:37;23.67;;;12.57;;
49123;SDS011;48506;48.202;16.274;2023-02-14T14:36:00;24.58;;;13.18;;
49123;SDS011;48506;48.202;16.274;2023-02-14T14:38:28;23.63;;;12.27;;
49123;SDS011;48506;48.202;16.274;2023-02-14T14:40:55;22.33;;;12.43;;
49123;SDS011;48506;48.202;16.274;2023-02-14T14:43:29;23.92;;;12.98;;
49123;SDS011;48506;48.202;16.274;2023-02-14T14:46:01;22.00;;;12.52;;
49123;SDS011;48506;48.202;16.274;2023-02-14T14:48:29;23.45;;;13.75;;
49123;SDS011;48506;48.202;16.274;2023-02-14T14:50:57;22.77;;;12.25;;
49123;SDS011;48506;48.202;16.274;2023-02-14T14:53:26;23.65;;;12.57;;
49123;SDS011;48506;48.202;16.274;2023-02-14T14:55:52;23.38;;;12.07;;
49123;SDS011;48506;48.202;16.274;2023-02-14T15:01:00;22.08;;;11.77;;
49123;SDS011;48506;48.202;16.274;2023-02-14T15:03:28;28.58;;;14.18;;
49123;SDS011;48506;48.202;16.274;2023-02-14T15:08:44;23.67;;;13.18;;
49123;SDS011;48506;48.202;16.274;2023-02-14T15:11:43;24.10;;;12.95;;
49123;SDS011;48506;48.202;16.274;2023-02-14T15:14:22;24.20;;;12.98;;
49123;SDS011;48506;48.202;16.274;2023-02-14T15:16:51;25.67;;;12.98;;
49123;SDS011;48506;48.202;16.274;2023-02-14T15:22:18;19.83;;;11.95;;
49123;SDS011;48506;48.202;16.274;2023-02-14T15:24:49;25.58;;;13.20;;
49123;SDS011;48506;48.202;16.274;2023-02-14T15:27:18;27.15;;;14.90;;
49123;SDS011;48506;48.202;16.274;2023-02-14T15:29:59;22.55;;;13.27;;
49123;SDS011;48506;48.202;16.274;2023-02-14T15:32:28;23.95;;;12.85;;
49123;SDS011;48506;48.202;16.274;2023-02-14T15:34:56;22.55;;;12.50;;
49123;SDS011;48506;48.202;16.274;2023-02-14T15:37:25;26.98;;;13.75;;
49123;SDS011;48506;48.202;16.274;2023-02-14T15:39:52;28.35;;;13.98;;
49123;SDS011;48506;48.202;16.274;2023-02-14T15:42:24;27.70;;;13.88;;
49123;SDS011;48506;48.202;16.274;2023-02-14T15:50:26;27.83;;;15.20;;
49123;SDS011;48506;48.202;16.274;2023-02-14T15:53:07;28.90;;;15.50;;
49123;SDS011;48506;48.202;16.274;2023-02-14T15:56:05;26.85;;;14.20;;
49123;SDS011;48506;48.202;16.274;2023-02-14T15:58:51;26.80;;;14.15;;
49123;SDS011;48506;48.202;16.274;2023-02-14T16:01:29;23.70;;;13.53;;
49123;SDS011;48506;48.202;16.274;2023-02-14T16:03:57;27.30;;;14.25;;
49123;SDS011;48506;48.202;16.274;2023-02-14T16:08:57;26.27;;;14.65;;
49123;SDS011;48506;48.202;16.274;2023-02-14T16:11:28;28.23;;;15.07;;
49123;SDS011;48506;48.202;16.274;2023-02-14T16:16:58;27.63;;;15.57;;
49123;SDS011;48506;48.202;16.274;2023-02-14T16:19:38;28.33;;;14.75;;
49123;SDS011;48506;48.202;16.274;2023-02-14T16:22:11;27.48;;;15.52;;
49123;SDS011;48506;48.202;16.274;2023-02-14T16:24:56;27.95;;;15.52;;
49123;SDS011;48506;48.202;16.274;2023-02-14T16:27:23;28.33;;;15.38;;
49123;SDS011;48506;48.202;16.274;2023-02-14T16:29:50;30.20;;;14.15;;
49123;SDS011;48506;48.202;16.274;2023-02-14T16:32:17;26.30;;;14.38;;
49123;SDS011;48506;48.202;16.274;2023-02-14T16:34:47;27.48;;;13.95;;
49123;SDS011;48506;48.202;16.274;2023-02-14T16:37:20;28.75;;;14.50;;
49123;SDS011;48506;48.202;16.274;2023-02-14T16:39:50;28.65;;;15.55;;
49123;SDS011;48506;48.202;16.274;2023-02-14T16:42:19;29.83;;;14.32;;
49123;SDS011;48506;48.202;16.274;2023-02-14T16:44:45;26.60;;;14.93;;
49123;SDS011;48506;48.202;16.274;2023-02-14T16:47:12;28.80;;;15.15;;
49123;SDS011;48506;48.202;16.274;2023-02-14T16:49:40;32.88;;;16.52;;
49123;SDS011;48506;48.202;16.274;2023-02-14T16:52:13;30.83;;;15.05;;
49123;SDS011;48506;48.202;16.274;2023-02-14T16:54:46;28.70;;;15.93;;
49123;SDS011;48506;48.202;16.274;2023-02-14T16:57:19;48.92;;;22.02;;
49123;SDS011;48506;48.202;16.274;2023-02-14T16:59:56;46.08;;;23.52;;
49123;SDS011;48506;48.202;16.274;2023-02-14T17:02:22;41.05;;;20.58;;
49123;SDS011;48506;48.202;16.274;2023-02-14T17:04:52;29.55;;;16.05;;
49123;SDS011;48506;48.202;16.274;2023-02-14T17:07:19;38.58;;;20.55;;
49123;SDS011;48506;48.202;16.274;2023-02-14T17:09:48;43.92;;;23.20;;
49123;SDS011;48506;48.202;16.274;2023-02-14T17:12:20;36.78;;;18.38;;
49123;SDS011;48506;48.202;16.274;2023-02-14T17:14:52;41.65;;;21.38;;
49123;SDS011;48506;48.202;16.274;2023-02-14T17:17:20;39.75;;;20.33;;
49123;SDS011;48506;48.202;16.274;2023-02-14T17:19:46;31.88;;;16.77;;